createdAt,value
2023-05-12T00:02:04.939Z,97408.16
2023-05-12T00:04:32.520Z,97406.91
2023-05-12T00:07:00.050Z,97395.38
2023-05-12T00:09:27.540Z,97407.13
2023-05-12T00:11:55.143Z,97402.63
2023-05-12T00:14:22.662Z,97397.91
2023-05-12T00:16:52.035Z,97398.72
2023-05-12T00:19:21.418Z,97402.22
2023-05-12T00:21:48.921Z,97399.75
2023-05-12T00:24:16.438Z,97399.97
2023-05-12T00:26:44.038Z,97407.81
2023-05-12T00:29:11.749Z,97400.63
2023-05-12T00:31:39.243Z,97400.25
2023-05-12T00:34:06.886Z,97403.56
2023-05-12T00:36:36.051Z,97407.88
2023-05-12T00:39:04.552Z,97407.69
2023-05-12T00:41:32.279Z,97409.38
2023-05-12T00:43:59.880Z,97401.34
2023-05-12T00:46:27.799Z,97417.66
2023-05-12T00:48:55.360Z,97414.56
2023-05-12T00:51:23.056Z,97410.03
2023-05-12T00:53:51.929Z,97415.84
2023-05-12T00:56:19.796Z,97408.84
2023-05-12T00:58:47.708Z,97414.81
2023-05-12T01:01:16.390Z,97416.09
2023-05-12T01:03:45.625Z,97407.69
2023-05-12T01:06:14.789Z,97399.03
2023-05-12T01:08:42.406Z,97397.19
2023-05-12T01:11:11.965Z,97398.44
2023-05-12T01:13:41.145Z,97398.03
2023-05-12T01:16:10.760Z,97400.50
2023-05-12T01:18:39.180Z,97408.97
2023-05-12T01:21:07.650Z,97405.47
2023-05-12T01:23:37.593Z,97406.31
2023-05-12T01:26:07.881Z,97407.56
2023-05-12T01:28:37.340Z,97404.28
2023-05-12T01:31:06.323Z,97402.19
2023-05-12T01:33:35.942Z,97408.16
2023-05-12T01:36:03.463Z,97406.53
2023-05-12T01:38:31.121Z,97400.34
2023-05-12T01:40:59.274Z,97412.28
2023-05-12T01:43:28.123Z,97405.94
2023-05-12T01:45:55.603Z,97410.03
2023-05-12T01:48:23.374Z,97412.09
2023-05-12T01:50:51.096Z,97411.88
2023-05-12T01:53:21.556Z,97413.72
2023-05-12T01:55:49.024Z,97416.63
2023-05-12T01:58:17.125Z,97424.22
2023-05-12T02:00:46.310Z,97417.22
2023-05-12T02:03:18.073Z,97417.44
2023-05-12T02:05:45.742Z,97417.63
2023-05-12T02:08:13.227Z,97421.75
2023-05-12T02:10:40.833Z,97407.16
2023-05-12T02:13:08.631Z,97414.97
2023-05-12T02:15:36.192Z,97412.09
2023-05-12T02:18:05.475Z,97410.84
2023-05-12T02:20:33.107Z,97417.56
2023-05-12T02:23:02.107Z,97408.34
2023-05-12T02:25:31.266Z,97406.25
2023-05-12T02:27:58.766Z,97412.84
2023-05-12T02:30:26.332Z,97414.84
2023-05-12T02:32:53.824Z,97412.00
2023-05-12T02:35:22.830Z,97414.91
2023-05-12T02:37:50.346Z,97410.56
2023-05-12T02:40:18.103Z,97418.59
2023-05-12T02:42:45.777Z,97416.16
2023-05-12T02:45:13.838Z,97407.75
2023-05-12T02:47:41.873Z,97412.03
2023-05-12T02:50:10.791Z,97417.56
2023-05-12T02:52:39.679Z,97416.50
2023-05-12T02:55:08.078Z,97409.09
2023-05-12T02:57:35.560Z,97411.53
2023-05-12T03:00:05.773Z,97407.47
2023-05-12T03:02:36.249Z,97415.69
2023-05-12T03:05:04.124Z,97411.34
2023-05-12T03:07:31.843Z,97409.50
2023-05-12T03:10:01.614Z,97412.97
2023-05-12T03:12:29.548Z,97411.28
2023-05-12T03:14:58.923Z,97411.06
2023-05-12T03:17:27.248Z,97407.16
2023-05-12T03:19:54.771Z,97401.78
2023-05-12T03:22:22.473Z,97404.25
2023-05-12T03:24:49.961Z,97400.56
2023-05-12T03:27:18.840Z,97405.75
2023-05-12T03:29:46.659Z,97405.59
2023-05-12T03:32:14.221Z,97415.47
2023-05-12T03:34:42.095Z,97402.97
2023-05-12T03:37:09.706Z,97405.75
2023-05-12T03:39:37.214Z,97407.00
2023-05-12T03:42:05.169Z,97410.28
2023-05-12T03:44:34.003Z,97403.47
2023-05-12T03:47:01.704Z,97403.47
2023-05-12T03:49:29.338Z,97398.78
2023-05-12T03:51:56.887Z,97404.31
2023-05-12T03:54:25.734Z,97403.88
2023-05-12T03:56:53.290Z,97401.59
2023-05-12T03:59:21.832Z,97403.69
2023-05-12T04:01:50.897Z,97398.56
2023-05-12T04:04:19.098Z,97399.41
2023-05-12T04:06:46.597Z,97401.47
2023-05-12T04:09:14.109Z,97402.09
2023-05-12T04:11:41.601Z,97396.47
2023-05-12T04:14:09.144Z,97392.75
2023-05-12T04:16:37.761Z,97395.22
2023-05-12T04:19:06.911Z,97394.25
2023-05-12T04:21:36.291Z,97395.31
2023-05-12T04:24:04.333Z,97403.72
2023-05-12T04:26:37.533Z,97398.84
2023-05-12T04:29:05.103Z,97399.22
2023-05-12T04:31:32.688Z,97401.06
2023-05-12T04:34:01.171Z,97397.38
2023-05-12T04:36:32.073Z,97394.13
2023-05-12T04:39:00.109Z,97402.13
2023-05-12T04:41:27.790Z,97403.16
2023-05-12T04:46:26.919Z,97412.00
2023-05-12T04:48:54.707Z,97411.38
2023-05-12T04:51:22.226Z,97411.59
2023-05-12T04:53:51.128Z,97409.31
2023-05-12T04:56:20.167Z,97415.06
2023-05-12T04:58:47.848Z,97417.97
2023-05-12T05:01:18.193Z,97416.72
2023-05-12T05:03:45.867Z,97409.91
2023-05-12T05:06:14.403Z,97416.50
2023-05-12T05:08:43.043Z,97421.22
2023-05-12T05:11:14.968Z,97421.25
2023-05-12T05:13:43.327Z,97416.75
2023-05-12T05:16:10.901Z,97411.00
2023-05-12T05:18:41.724Z,97410.41
2023-05-12T05:21:09.669Z,97422.94
2023-05-12T05:23:37.317Z,97422.31
2023-05-12T05:26:05.312Z,97417.81
2023-05-12T05:28:34.224Z,97413.69
2023-05-12T05:31:01.908Z,97423.16
2023-05-12T05:33:29.722Z,97422.75
2023-05-12T05:35:57.672Z,97424.00
2023-05-12T05:38:25.223Z,97428.94
2023-05-12T05:40:54.652Z,97418.25
2023-05-12T05:43:24.197Z,97432.88
2023-05-12T05:45:53.618Z,97421.97
2023-05-12T05:48:22.371Z,97429.56
2023-05-12T05:50:51.407Z,97435.13
2023-05-12T05:53:19.554Z,97439.88
2023-05-12T05:55:48.516Z,97438.44
2023-05-12T05:58:16.361Z,97432.47
2023-05-12T06:00:44.516Z,97433.50
2023-05-12T06:03:13.558Z,97440.69
2023-05-12T06:05:42.338Z,97435.94
2023-05-12T06:08:13.018Z,97441.69
2023-05-12T06:10:40.851Z,97447.47
2023-05-12T06:13:08.468Z,97440.25
2023-05-12T06:15:36.030Z,97451.97
2023-05-12T06:18:03.629Z,97450.75
2023-05-12T06:20:32.910Z,97456.28
2023-05-12T06:23:00.474Z,97458.94
2023-05-12T06:25:27.954Z,97461.81
2023-05-12T06:27:55.571Z,97463.22
2023-05-12T06:30:23.343Z,97460.09
2023-05-12T06:32:50.884Z,97464.81
2023-05-12T06:35:18.854Z,97459.81
2023-05-12T06:37:49.735Z,97453.16
2023-05-12T06:40:17.808Z,97463.63
2023-05-12T06:42:45.369Z,97460.75
2023-05-12T06:45:19.661Z,97455.50
2023-05-12T06:47:47.501Z,97458.94
2023-05-12T06:50:15.535Z,97461.41
2023-05-12T06:52:43.028Z,97456.88
2023-05-12T06:55:11.989Z,97460.81
2023-05-12T06:57:39.581Z,97470.06
2023-05-12T07:00:08.488Z,97471.59
2023-05-12T07:02:36.032Z,97467.03
2023-05-12T07:05:03.541Z,97464.09
2023-05-12T07:07:31.123Z,97451.38
2023-05-12T07:09:58.606Z,97459.91
2023-05-12T07:12:27.525Z,97458.44
2023-05-12T07:14:54.988Z,97458.53
2023-05-12T07:17:22.665Z,97465.03
2023-05-12T07:19:50.328Z,97460.47
2023-05-12T07:22:17.886Z,97462.56
2023-05-12T07:24:45.513Z,97460.84
2023-05-12T07:27:13.079Z,97452.50
2023-05-12T07:29:41.974Z,97460.19
2023-05-12T07:32:09.486Z,97459.03
2023-05-12T07:34:37.567Z,97451.66
2023-05-12T07:37:06.694Z,97456.50
2023-05-12T07:39:34.297Z,97459.06
2023-05-12T07:42:01.768Z,97450.06
2023-05-12T07:44:29.333Z,97454.25
2023-05-12T07:46:58.189Z,97453.41
2023-05-12T07:49:26.066Z,97459.03
2023-05-12T07:51:53.577Z,97461.13
2023-05-12T07:54:21.128Z,97457.47
2023-05-12T07:56:48.714Z,97450.09
2023-05-12T07:59:16.311Z,97451.50
2023-05-12T08:01:43.959Z,97453.16
2023-05-12T08:04:12.878Z,97446.44
2023-05-12T08:06:40.796Z,97440.22
2023-05-12T08:09:08.309Z,97448.38
2023-05-12T08:11:35.872Z,97451.69
2023-05-12T08:14:03.373Z,97445.03
2023-05-12T08:16:30.951Z,97460.97
2023-05-12T08:18:58.723Z,97450.53
2023-05-12T08:21:28.667Z,97440.91
2023-05-12T08:23:56.269Z,97453.66
2023-05-12T08:26:24.851Z,97462.06
2023-05-12T08:28:52.586Z,97461.22
2023-05-12T08:31:20.850Z,97451.03
2023-05-12T08:33:54.028Z,97448.44
2023-05-12T08:36:28.480Z,97441.91
2023-05-12T08:38:56.584Z,97449.16
2023-05-12T08:41:29.813Z,97449.69
2023-05-12T08:43:57.651Z,97451.28
2023-05-12T08:46:26.768Z,97451.81
2023-05-12T08:48:54.940Z,97440.81
2023-05-12T08:51:23.393Z,97447.69
2023-05-12T08:53:54.300Z,97454.88
2023-05-12T08:58:56.425Z,97456.94
2023-05-12T09:01:24.344Z,97456.44
2023-05-12T09:03:52.795Z,97457.03
2023-05-12T09:06:20.468Z,97459.97
2023-05-12T09:08:47.997Z,97454.97
2023-05-12T09:11:17.437Z,97452.19
2023-05-12T09:13:51.522Z,97461.25
2023-05-12T09:16:21.657Z,97449.81
2023-05-12T09:18:51.674Z,97458.34
2023-05-12T09:21:19.607Z,97458.00
2023-05-12T09:23:56.884Z,97463.56
2023-05-12T09:26:26.868Z,97455.94
2023-05-12T09:28:55.896Z,97459.69
2023-05-12T09:31:24.702Z,97461.09
2023-05-12T09:33:52.830Z,97459.00
2023-05-12T09:36:21.262Z,97459.81
2023-05-12T09:38:59.683Z,97464.16
2023-05-12T09:41:28.491Z,97458.75
2023-05-12T09:43:56.465Z,97456.06
2023-05-12T09:46:25.651Z,97467.91
2023-05-12T09:48:56.471Z,97469.78
2023-05-12T09:51:24.862Z,97466.03
2023-05-12T09:53:52.881Z,97467.66
2023-05-12T09:56:21.308Z,97467.91
2023-05-12T09:58:50.921Z,97474.44
2023-05-12T10:01:23.210Z,97466.00
2023-05-12T10:03:53.835Z,97465.44
2023-05-12T10:06:23.808Z,97463.59
2023-05-12T10:08:54.619Z,97458.91
2023-05-12T10:11:23.465Z,97461.69
2023-05-12T10:13:53.220Z,97455.47
2023-05-12T10:16:21.692Z,97462.03
2023-05-12T10:18:49.685Z,97469.31
2023-05-12T10:21:17.467Z,97461.69
2023-05-12T10:23:45.639Z,97461.19
2023-05-12T10:26:15.477Z,97462.09
2023-05-12T10:28:43.311Z,97460.28
2023-05-12T10:31:12.460Z,97464.13
2023-05-12T10:33:39.993Z,97460.84
2023-05-12T10:36:18.000Z,97463.84
2023-05-12T10:38:49.735Z,97459.91
2023-05-12T10:41:17.821Z,97458.19
2023-05-12T10:43:49.439Z,97466.22
2023-05-12T10:46:20.800Z,97461.19
2023-05-12T10:48:54.899Z,97461.28
2023-05-12T10:51:24.144Z,97466.44
2023-05-12T10:53:58.431Z,97460.34
2023-05-12T10:56:29.534Z,97461.50
2023-05-12T10:59:08.393Z,97454.03
2023-05-12T11:01:37.909Z,97451.72
2023-05-12T11:04:17.300Z,97458.75
2023-05-12T11:06:46.761Z,97459.50
2023-05-12T11:09:15.725Z,97464.78
2023-05-12T11:11:45.765Z,97463.31
2023-05-12T11:14:13.581Z,97458.97
2023-05-12T11:16:44.394Z,97462.00
2023-05-12T11:19:12.495Z,97463.72
2023-05-12T11:21:40.349Z,97457.09
2023-05-12T11:24:12.961Z,97464.03
2023-05-12T11:26:41.310Z,97465.59
2023-05-12T11:29:08.821Z,97462.59
2023-05-12T11:31:36.392Z,97464.31
2023-05-12T11:34:12.740Z,97466.53
2023-05-12T11:36:42.243Z,97472.75
2023-05-12T11:39:14.524Z,97467.50
2023-05-12T11:41:41.989Z,97470.28
2023-05-12T11:44:16.721Z,97473.41
2023-05-12T11:46:55.336Z,97475.66
2023-05-12T11:49:24.274Z,97474.56
2023-05-12T11:51:53.429Z,97469.25
2023-05-12T11:54:21.193Z,97475.69
2023-05-12T11:56:49.297Z,97477.00
2023-05-12T11:59:27.275Z,97471.22
2023-05-12T12:01:55.009Z,97465.88
2023-05-12T12:04:34.416Z,97473.47
2023-05-12T12:07:02.163Z,97476.75
2023-05-12T12:09:34.047Z,97469.34
2023-05-12T12:12:02.247Z,97477.66
2023-05-12T12:14:31.337Z,97475.25
2023-05-12T12:16:58.857Z,97480.19
2023-05-12T12:19:27.715Z,97486.41
2023-05-12T12:21:56.802Z,97491.75
2023-05-12T12:24:24.402Z,97491.56
2023-05-12T12:26:52.150Z,97494.06
2023-05-12T12:29:19.759Z,97493.22
2023-05-12T12:31:47.289Z,97492.91
2023-05-12T12:34:14.831Z,97497.56
2023-05-12T12:36:42.614Z,97483.81
2023-05-12T12:39:11.447Z,97493.06
2023-05-12T12:41:38.961Z,97503.09
2023-05-12T12:44:07.103Z,97499.53
2023-05-12T12:46:34.693Z,97513.97
2023-05-12T12:49:02.196Z,97511.97
2023-05-12T12:51:44.462Z,97515.75
2023-05-12T12:54:14.923Z,97515.34
2023-05-12T12:56:42.783Z,97521.94
2023-05-12T12:59:10.335Z,97513.41
2023-05-12T13:01:37.864Z,97512.56
2023-05-12T13:04:05.630Z,97516.16
2023-05-12T13:06:33.224Z,97511.16
2023-05-12T13:09:00.769Z,97508.22
2023-05-12T13:11:29.614Z,97513.47
2023-05-12T13:13:57.116Z,97510.31
2023-05-12T13:16:24.623Z,97511.03
2023-05-12T13:18:52.204Z,97508.81
2023-05-12T13:21:19.801Z,97501.09
2023-05-12T13:23:47.297Z,97502.19
2023-05-12T13:26:14.831Z,97501.59
2023-05-12T13:28:44.092Z,97500.53
2023-05-12T13:31:11.635Z,97505.38
2023-05-12T13:33:39.251Z,97503.53
2023-05-12T13:36:07.591Z,97509.72
2023-05-12T13:38:35.179Z,97511.16
2023-05-12T13:41:03.201Z,97505.31
2023-05-12T13:43:30.725Z,97503.13
2023-05-12T13:45:59.562Z,97507.03
2023-05-12T13:48:27.117Z,97503.69
2023-05-12T13:50:54.783Z,97504.13
2023-05-12T13:53:22.290Z,97501.81
2023-05-12T13:55:49.794Z,97496.88
2023-05-12T13:58:17.502Z,97494.09
2023-05-12T14:00:45.105Z,97494.91
2023-05-12T14:03:13.953Z,97492.22
2023-05-12T14:05:41.518Z,97495.75
2023-05-12T14:08:09.204Z,97501.03
2023-05-12T14:10:36.744Z,97491.78
2023-05-12T14:13:09.038Z,97496.81
2023-05-12T14:15:48.045Z,97505.56
2023-05-12T14:18:18.421Z,97500.06
2023-05-12T14:20:46.160Z,97493.91
2023-05-12T14:23:13.918Z,97493.78
2023-05-12T14:25:41.467Z,97493.31
2023-05-12T14:28:09.356Z,97501.81
2023-05-12T14:30:38.516Z,97496.53
2023-05-12T14:33:06.469Z,97497.19
2023-05-12T14:35:35.501Z,97506.19
2023-05-12T14:38:03.081Z,97498.78
2023-05-12T14:40:30.665Z,97499.69
2023-05-12T14:42:58.455Z,97501.50
2023-05-12T14:45:26.535Z,97504.75
2023-05-12T14:47:54.558Z,97506.78
2023-05-12T14:50:22.400Z,97497.88
2023-05-12T14:52:51.389Z,97498.56
2023-05-12T14:55:19.153Z,97503.63
2023-05-12T14:57:47.868Z,97507.38
2023-05-12T15:00:16.409Z,97500.88
2023-05-12T15:02:45.061Z,97488.78
2023-05-12T15:05:13.714Z,97492.19
2023-05-12T15:07:41.250Z,97493.72
2023-05-12T15:10:11.154Z,97495.38
2023-05-12T15:12:39.224Z,97498.16
2023-05-12T15:15:08.840Z,97496.72
2023-05-12T15:17:36.471Z,97489.63
2023-05-12T15:20:04.477Z,97497.56
2023-05-12T15:22:32.268Z,97488.53
2023-05-12T15:25:00.293Z,97492.56
2023-05-12T15:27:29.196Z,97494.00
2023-05-12T15:29:56.670Z,97487.41
2023-05-12T15:32:24.196Z,97490.16
2023-05-12T15:34:51.725Z,97484.75
2023-05-12T15:37:19.231Z,97482.91
2023-05-12T15:39:46.707Z,97490.72
2023-05-12T15:42:16.730Z,97480.59
2023-05-12T15:44:48.288Z,97477.47
2023-05-12T15:47:15.798Z,97478.22
2023-05-12T15:49:43.288Z,97485.75
2023-05-12T15:52:11.429Z,97486.41
2023-05-12T15:54:39.413Z,97483.47
2023-05-12T15:57:06.955Z,97488.00
2023-05-12T15:59:34.450Z,97487.25
2023-05-12T16:02:03.341Z,97491.78
2023-05-12T16:04:30.881Z,97500.22
2023-05-12T16:06:58.424Z,97499.19
2023-05-12T16:09:26.489Z,97498.56
2023-05-12T16:11:54.853Z,97501.00
2023-05-12T16:14:25.437Z,97504.78
2023-05-12T16:16:53.012Z,97499.16
2023-05-12T16:19:21.846Z,97503.72
2023-05-12T16:21:49.413Z,97500.69
2023-05-12T16:24:17.599Z,97496.09
2023-05-12T16:26:45.272Z,97489.28
2023-05-12T16:29:13.727Z,97490.69
2023-05-12T16:31:41.316Z,97486.78
2023-05-12T16:34:08.842Z,97496.25
2023-05-12T16:36:38.139Z,97481.84
2023-05-12T16:39:07.530Z,97491.34
2023-05-12T16:41:35.170Z,97494.41
2023-05-12T16:44:02.781Z,97488.13
2023-05-12T16:46:32.564Z,97481.38
2023-05-12T16:49:00.137Z,97490.31
2023-05-12T16:51:30.441Z,97481.84
2023-05-12T16:53:59.301Z,97485.56
2023-05-12T16:56:28.113Z,97493.41
2023-05-12T16:58:55.640Z,97499.63
2023-05-12T17:01:23.466Z,97495.88
2023-05-12T17:03:51.191Z,97500.69
2023-05-12T17:06:18.890Z,97511.31
2023-05-12T17:08:46.387Z,97511.91
2023-05-12T17:11:15.163Z,97511.88
2023-05-12T17:13:42.877Z,97508.88
2023-05-12T17:16:10.372Z,97515.88
2023-05-12T17:21:09.054Z,97517.59
2023-05-12T17:23:36.602Z,97517.75
2023-05-12T17:26:04.222Z,97523.03
2023-05-12T17:28:33.315Z,97522.34
2023-05-12T17:31:01.343Z,97517.50
2023-05-12T17:33:29.454Z,97529.84
2023-05-12T17:36:10.974Z,97529.97
2023-05-12T17:38:40.404Z,97533.25
2023-05-12T17:41:07.932Z,97540.03
2023-05-12T17:43:36.857Z,97546.97
2023-05-12T17:46:04.867Z,97543.94
2023-05-12T17:48:33.325Z,97558.91
2023-05-12T17:51:01.341Z,97564.22
2023-05-12T17:53:28.856Z,97569.22
2023-05-12T17:55:56.643Z,97576.50
2023-05-12T17:58:24.298Z,97581.16
2023-05-12T18:00:53.516Z,97581.06
2023-05-12T18:03:23.493Z,97574.88
2023-05-12T18:05:52.637Z,97587.44
2023-05-12T18:08:20.186Z,97577.50
2023-05-12T18:10:47.970Z,97581.25
2023-05-12T18:13:15.959Z,97576.78
2023-05-12T18:15:43.942Z,97574.66
2023-05-12T18:18:14.398Z,97582.19
2023-05-12T18:20:42.296Z,97578.63
2023-05-12T18:23:09.853Z,97580.25
2023-05-12T18:25:37.365Z,97580.00
2023-05-12T18:28:06.489Z,97587.81
2023-05-12T18:30:34.089Z,97585.09
2023-05-12T18:33:01.584Z,97587.06
2023-05-12T18:35:30.818Z,97597.31
2023-05-12T18:37:58.458Z,97598.34
2023-05-12T18:40:26.252Z,97601.06
2023-05-12T18:42:53.794Z,97613.41
2023-05-12T18:45:22.811Z,97618.13
2023-05-12T18:47:50.486Z,97620.28
2023-05-12T18:50:18.064Z,97624.91
2023-05-12T18:52:46.910Z,97629.91
2023-05-12T18:55:15.222Z,97631.78
2023-05-12T18:57:42.721Z,97629.91
2023-05-12T19:00:11.177Z,97641.03
2023-05-12T19:02:38.745Z,97642.91
2023-05-12T19:05:07.380Z,97638.81
2023-05-12T19:07:34.898Z,97639.84
2023-05-12T19:10:03.760Z,97648.50
2023-05-12T19:12:31.648Z,97643.63
2023-05-12T19:14:59.517Z,97643.72
2023-05-12T19:17:27.064Z,97648.88
2023-05-12T19:19:54.605Z,97649.09
2023-05-12T19:22:23.459Z,97643.78
2023-05-12T19:24:51.588Z,97653.03
2023-05-12T19:27:20.625Z,97649.75
2023-05-12T19:29:48.496Z,97664.28
2023-05-12T19:32:16.969Z,97654.44
2023-05-12T19:34:44.599Z,97664.38
2023-05-12T19:37:12.076Z,97661.47
2023-05-12T19:39:39.598Z,97664.25
2023-05-12T19:42:07.620Z,97675.28
2023-05-12T19:44:36.731Z,97679.41
2023-05-12T19:47:05.001Z,97681.09
2023-05-12T19:49:34.118Z,97696.25
2023-05-12T19:52:01.833Z,97691.75
2023-05-12T19:54:29.498Z,97696.53
2023-05-12T19:56:57.093Z,97686.22
2023-05-12T19:59:24.762Z,97685.84
2023-05-12T20:01:53.636Z,97687.69
2023-05-12T20:04:21.455Z,97680.44
2023-05-12T20:06:48.956Z,97686.50
2023-05-12T20:09:16.501Z,97689.38
2023-05-12T20:11:43.989Z,97690.22
2023-05-12T20:14:11.463Z,97691.19
2023-05-12T20:16:39.187Z,97688.78
2023-05-12T20:19:08.141Z,97695.44
2023-05-12T20:21:35.830Z,97693.22
2023-05-12T20:24:03.341Z,97704.78
2023-05-12T20:26:31.130Z,97706.44
2023-05-12T20:28:59.500Z,97702.16
2023-05-12T20:31:27.430Z,97708.19
2023-05-12T20:33:55.772Z,97701.75
2023-05-12T20:36:24.619Z,97709.84
2023-05-12T20:38:52.173Z,97703.22
2023-05-12T20:41:19.673Z,97704.50
2023-05-12T20:43:47.701Z,97696.91
2023-05-12T20:46:15.327Z,97708.00
2023-05-12T20:48:42.897Z,97705.09
2023-05-12T20:51:11.421Z,97709.88
2023-05-12T20:53:40.489Z,97706.19
2023-05-12T20:56:08.644Z,97709.09
2023-05-12T20:58:36.460Z,97714.47
2023-05-12T21:01:04.161Z,97704.38
2023-05-12T21:03:31.753Z,97712.63
2023-05-12T21:05:59.965Z,97710.59
2023-05-12T21:08:27.515Z,97706.69
2023-05-12T21:10:56.462Z,97706.25
2023-05-12T21:13:24.035Z,97718.03
2023-05-12T21:15:51.543Z,97711.00
2023-05-12T21:18:19.044Z,97708.75
2023-05-12T21:20:46.571Z,97708.09
2023-05-12T21:23:14.088Z,97711.59
2023-05-12T21:25:41.557Z,97706.44
2023-05-12T21:28:10.378Z,97700.28
2023-05-12T21:30:37.865Z,97707.09
2023-05-12T21:33:05.722Z,97712.69
2023-05-12T21:35:33.324Z,97702.13
2023-05-12T21:38:00.900Z,97717.81
2023-05-12T21:40:29.092Z,97710.59
2023-05-12T21:42:56.594Z,97706.28
2023-05-12T21:45:26.044Z,97709.56
2023-05-12T21:47:53.726Z,97717.63
2023-05-12T21:50:21.984Z,97715.16
2023-05-12T21:52:50.138Z,97723.59
2023-05-12T21:55:17.761Z,97720.28
2023-05-12T21:57:45.353Z,97717.22
2023-05-12T22:00:14.999Z,97722.13
2023-05-12T22:02:44.688Z,97719.06
2023-05-12T22:05:12.235Z,97722.56
2023-05-12T22:07:39.718Z,97723.78
2023-05-12T22:10:07.930Z,97729.34
2023-05-12T22:12:35.392Z,97724.41
2023-05-12T22:15:02.920Z,97726.69
2023-05-12T22:17:30.579Z,97714.94
2023-05-12T22:19:59.436Z,97722.34
2023-05-12T22:22:27.001Z,97721.53
2023-05-12T22:24:54.546Z,97718.81
2023-05-12T22:27:22.411Z,97723.38
2023-05-12T22:29:50.084Z,97728.72
2023-05-12T22:32:17.585Z,97727.06
2023-05-12T22:34:45.053Z,97733.25
2023-05-12T22:37:13.897Z,97732.84
2023-05-12T22:39:41.427Z,97730.56
2023-05-12T22:42:09.017Z,97734.06
2023-05-12T22:44:36.601Z,97742.72
2023-05-12T22:47:04.126Z,97744.78
2023-05-12T22:49:31.649Z,97741.06
2023-05-12T22:51:59.995Z,97741.47
2023-05-12T22:54:28.821Z,97746.41
2023-05-12T22:56:56.486Z,97745.56
2023-05-12T22:59:24.020Z,97744.69
2023-05-12T23:01:51.526Z,97745.97
2023-05-12T23:04:19.166Z,97744.47
2023-05-12T23:06:46.711Z,97743.81
2023-05-12T23:09:14.562Z,97747.50
2023-05-12T23:11:43.316Z,97746.28
2023-05-12T23:14:11.339Z,97745.91
2023-05-12T23:16:38.994Z,97742.78
2023-05-12T23:19:06.622Z,97739.28
2023-05-12T23:21:34.085Z,97736.63
2023-05-12T23:24:01.729Z,97741.78
2023-05-12T23:26:29.240Z,97739.91
2023-05-12T23:28:58.324Z,97739.69
2023-05-12T23:31:25.949Z,97736.22
2023-05-12T23:33:53.582Z,97737.06
2023-05-12T23:36:22.181Z,97730.03
2023-05-12T23:38:53.620Z,97739.97
2023-05-12T23:41:21.895Z,97740.38
2023-05-12T23:43:49.399Z,97738.97
2023-05-12T23:46:18.289Z,97733.38
2023-05-12T23:48:45.843Z,97729.72
2023-05-12T23:51:13.299Z,97733.00
2023-05-12T23:53:40.810Z,97733.38
2023-05-12T23:56:09.019Z,97728.66
2023-05-12T23:58:36.489Z,97725.97
